Terminal Aerodrome Forecast
Issued by NWS

Home | Current Version | Previous Version | Text Only | Print | Product List | Glossary On
Versions: 1 2 3 4 5 6 7 8 9 10 11 12 13 14 15 16 17 18 19 20 21 22 23 24 25
000
FTUS43 KDVN 210900 AAA
TAFCID
TAF AMD
KCID 210943Z 2110/2206 16009KT 3SM BR OVC004
      TEMPO 2110/2112 1SM -DZ BR OVC002
     FM211400 17011KT 4SM BR OVC008
     FM211600 17014KT 6SM BR OVC010
     FM211800 16015G22KT 5SM BR OVC015=

USA.gov is the U.S. government's official web portal to all federal, state and local government web resources and services.